createdAt,value
2017-08-08T00:03:09.074Z,69.40
2017-08-08T00:05:37.150Z,69.40
2017-08-08T00:08:05.213Z,69.40
2017-08-08T00:10:33.265Z,69.30
2017-08-08T00:13:02.131Z,68.90
2017-08-08T00:15:30.197Z,68.90
2017-08-08T00:17:58.270Z,69.00
2017-08-08T00:20:26.339Z,68.70
2017-08-08T00:22:54.387Z,68.80
2017-08-08T00:25:22.450Z,68.50
2017-08-08T00:27:50.530Z,68.90
2017-08-08T00:30:18.605Z,69.50
2017-08-08T00:32:46.698Z,69.90
2017-08-08T00:35:14.775Z,69.90
2017-08-08T00:37:43.634Z,69.60
2017-08-08T00:40:11.698Z,69.40
2017-08-08T00:42:39.772Z,68.90
2017-08-08T00:45:07.843Z,69.00
2017-08-08T00:47:35.926Z,69.10
2017-08-08T00:50:03.983Z,69.30
2017-08-08T00:52:32.032Z,69.00
2017-08-08T00:55:00.101Z,69.20
2017-08-08T00:57:28.163Z,69.40
2017-08-08T00:59:56.252Z,69.40
2017-08-08T01:02:24.298Z,69.60
2017-08-08T01:04:52.358Z,69.40
2017-08-08T01:07:20.406Z,68.70
2017-08-08T01:09:49.247Z,68.50
2017-08-08T01:12:17.311Z,68.30
2017-08-08T01:14:45.374Z,68.40
2017-08-08T01:17:13.438Z,68.10
2017-08-08T01:19:41.514Z,69.20
2017-08-08T01:22:09.571Z,68.10
2017-08-08T01:24:37.643Z,67.90
2017-08-08T01:27:05.995Z,68.00
2017-08-08T01:29:34.823Z,67.80
2017-08-08T01:32:02.939Z,67.80
2017-08-08T01:34:30.997Z,67.70
2017-08-08T01:36:59.080Z,67.50
2017-08-08T01:39:27.127Z,67.70
2017-08-08T01:41:55.181Z,67.70
2017-08-08T01:44:24.022Z,67.70
2017-08-08T01:46:52.101Z,67.60
2017-08-08T01:49:20.176Z,67.60
2017-08-08T01:51:48.837Z,67.60
2017-08-08T01:54:16.911Z,67.80
2017-08-08T01:56:44.994Z,67.80
2017-08-08T01:59:13.080Z,68.30
2017-08-08T02:01:41.192Z,68.30
2017-08-08T02:04:09.239Z,68.60
2017-08-08T02:06:37.300Z,68.10
2017-08-08T02:09:05.378Z,68.40
2017-08-08T02:11:33.458Z,68.80
2017-08-08T02:14:01.511Z,68.90
2017-08-08T02:16:29.598Z,68.80
2017-08-08T02:18:57.668Z,69.10
2017-08-08T02:21:25.742Z,69.00
2017-08-08T02:23:53.816Z,69.20
2017-08-08T02:26:21.879Z,69.30
2017-08-08T02:28:49.950Z,69.40
2017-08-08T02:31:18.030Z,69.30
2017-08-08T02:33:46.106Z,69.10
2017-08-08T02:36:14.163Z,69.30
2017-08-08T02:38:42.230Z,69.20
2017-08-08T02:41:10.299Z,69.20
2017-08-08T02:43:38.372Z,69.30
2017-08-08T02:46:06.456Z,69.30
2017-08-08T02:48:34.512Z,69.40
2017-08-08T02:51:02.582Z,69.20
2017-08-08T02:53:30.650Z,69.10
2017-08-08T02:55:58.730Z,69.10
2017-08-08T02:58:26.790Z,69.00
2017-08-08T03:00:55.434Z,69.20
2017-08-08T03:03:24.291Z,68.80
2017-08-08T03:05:52.350Z,68.70
2017-08-08T03:08:20.419Z,68.90
2017-08-08T03:10:48.491Z,68.80
2017-08-08T03:13:16.558Z,68.80
2017-08-08T03:15:44.619Z,68.80
2017-08-08T03:18:12.699Z,69.00
2017-08-08T03:20:40.763Z,69.20
2017-08-08T03:23:08.838Z,69.00
2017-08-08T03:25:36.898Z,68.70
2017-08-08T03:28:04.971Z,68.90
2017-08-08T03:30:33.037Z,68.70
2017-08-08T03:33:01.122Z,68.70
2017-08-08T03:35:29.199Z,68.40
2017-08-08T03:37:57.275Z,68.40
2017-08-08T03:40:25.346Z,68.60
2017-08-08T03:42:53.410Z,68.50
2017-08-08T03:45:21.487Z,68.80
2017-08-08T03:47:49.567Z,69.20
2017-08-08T03:50:17.635Z,68.90
2017-08-08T03:52:45.702Z,69.20
2017-08-08T03:55:13.773Z,69.00
2017-08-08T03:57:41.864Z,68.70
2017-08-08T04:00:09.923Z,68.70
2017-08-08T04:02:38.015Z,68.40
2017-08-08T04:05:06.072Z,67.90
2017-08-08T04:07:34.135Z,68.20
2017-08-08T04:10:02.204Z,68.00
2017-08-08T04:12:30.270Z,68.10
2017-08-08T04:14:58.351Z,68.30
2017-08-08T04:17:26.427Z,68.10
2017-08-08T04:19:54.515Z,68.00
2017-08-08T04:22:22.567Z,68.00
2017-08-08T04:24:50.644Z,67.90
2017-08-08T04:27:18.690Z,68.10
2017-08-08T04:29:46.768Z,67.90
2017-08-08T04:32:14.834Z,68.10
2017-08-08T04:34:42.904Z,68.40
2017-08-08T04:37:11.030Z,68.10
2017-08-08T04:39:39.132Z,68.20
2017-08-08T04:42:07.217Z,68.50
2017-08-08T04:44:35.271Z,68.00
2017-08-08T04:47:03.342Z,67.90
2017-08-08T04:49:31.428Z,67.80
2017-08-08T04:51:59.470Z,68.10
2017-08-08T04:54:27.539Z,67.70
2017-08-08T04:56:55.622Z,68.00
2017-08-08T04:59:23.717Z,67.60
2017-08-08T05:01:51.798Z,67.70
2017-08-08T05:04:19.863Z,67.70
2017-08-08T05:06:47.949Z,67.70
2017-08-08T05:09:16.012Z,67.60
2017-08-08T05:11:44.083Z,67.70
2017-08-08T05:14:12.155Z,67.70
2017-08-08T05:16:40.219Z,68.00
2017-08-08T05:19:08.291Z,67.70
2017-08-08T05:21:36.357Z,67.70
2017-08-08T05:24:04.428Z,68.00
2017-08-08T05:26:32.498Z,68.00
2017-08-08T05:29:00.592Z,68.30
2017-08-08T05:31:28.647Z,68.60
2017-08-08T05:33:56.714Z,68.70
2017-08-08T05:36:27.617Z,68.50
2017-08-08T05:38:55.783Z,67.80
2017-08-08T05:41:23.849Z,67.70
2017-08-08T05:43:51.931Z,67.50
2017-08-08T05:46:20.003Z,67.20
2017-08-08T05:48:48.112Z,67.00
2017-08-08T05:51:16.171Z,67.10
2017-08-08T05:53:44.243Z,66.70
2017-08-08T05:56:12.314Z,67.00
2017-08-08T05:58:40.402Z,66.60
2017-08-08T06:01:08.441Z,66.70
2017-08-08T06:03:36.522Z,67.30
2017-08-08T06:06:04.588Z,66.90
2017-08-08T06:08:32.649Z,67.30
2017-08-08T06:11:00.713Z,67.60
2017-08-08T06:13:28.787Z,67.10
2017-08-08T06:15:56.880Z,66.70
2017-08-08T06:18:24.951Z,66.50
2017-08-08T06:20:53.018Z,67.00
2017-08-08T06:23:21.082Z,67.40
2017-08-08T06:25:49.147Z,66.90
2017-08-08T06:28:17.212Z,67.20
2017-08-08T06:30:45.353Z,67.30
2017-08-08T06:33:13.446Z,66.90
2017-08-08T06:35:41.501Z,66.70
2017-08-08T06:38:09.563Z,65.90
2017-08-08T06:40:37.648Z,65.60
2017-08-08T06:43:05.695Z,65.80
2017-08-08T06:45:33.767Z,65.70
2017-08-08T06:48:01.829Z,65.60
2017-08-08T06:50:29.895Z,65.20
2017-08-08T06:52:57.959Z,65.50
2017-08-08T06:55:26.045Z,65.60
2017-08-08T06:57:54.103Z,65.80
2017-08-08T07:00:22.171Z,66.20
2017-08-08T07:02:50.256Z,66.20
2017-08-08T07:05:18.320Z,66.30
2017-08-08T07:07:46.394Z,66.40
2017-08-08T07:10:14.454Z,66.70
2017-08-08T07:12:42.541Z,67.20
2017-08-08T07:15:10.601Z,66.60
2017-08-08T07:17:38.674Z,66.30
2017-08-08T07:20:06.742Z,66.40
2017-08-08T07:22:34.808Z,66.10
2017-08-08T07:25:02.887Z,65.70
2017-08-08T07:27:30.963Z,65.50
2017-08-08T07:29:59.037Z,65.90
2017-08-08T07:32:27.122Z,66.60
2017-08-08T07:34:55.191Z,65.10
2017-08-08T07:37:23.265Z,66.00
2017-08-08T07:39:51.328Z,66.10
2017-08-08T07:42:19.411Z,66.00
2017-08-08T07:44:47.494Z,65.90
2017-08-08T07:47:15.554Z,65.80
2017-08-08T07:49:43.620Z,65.60
2017-08-08T07:52:11.731Z,65.40
2017-08-08T07:54:40.564Z,65.00
2017-08-08T07:57:08.647Z,64.90
2017-08-08T07:59:36.694Z,64.90
2017-08-08T08:02:04.791Z,64.80
2017-08-08T08:04:32.864Z,65.10
2017-08-08T08:07:00.931Z,65.20
2017-08-08T08:09:29.026Z,65.20
2017-08-08T08:11:57.087Z,65.20
2017-08-08T08:14:25.154Z,64.60
2017-08-08T08:16:53.219Z,65.40
2017-08-08T08:19:21.286Z,64.20
2017-08-08T08:21:49.354Z,64.00
2017-08-08T08:24:17.439Z,64.00
2017-08-08T08:26:45.526Z,62.90
2017-08-08T08:29:13.604Z,60.60
2017-08-08T08:31:41.677Z,60.70
2017-08-08T08:34:09.744Z,59.70
2017-08-08T08:36:37.853Z,61.00
2017-08-08T08:39:05.900Z,59.40
2017-08-08T08:41:34.751Z,59.20
2017-08-08T08:44:02.803Z,59.10
2017-08-08T08:46:30.915Z,60.90
2017-08-08T08:48:58.973Z,61.30
2017-08-08T08:51:27.079Z,61.10
2017-08-08T08:53:55.932Z,61.60
2017-08-08T08:56:24.514Z,61.60
2017-08-08T08:58:52.591Z,61.40
2017-08-08T09:01:20.654Z,60.40
2017-08-08T09:03:48.740Z,60.60
2017-08-08T09:06:17.579Z,64.30
2017-08-08T09:08:45.644Z,63.30
2017-08-08T09:11:13.706Z,60.00
2017-08-08T09:13:41.794Z,62.80
2017-08-08T09:16:09.865Z,60.50
2017-08-08T09:18:38.023Z,61.20
2017-08-08T09:21:06.825Z,62.60
2017-08-08T09:23:34.886Z,61.70
2017-08-08T09:26:02.974Z,60.50
2017-08-08T09:28:31.040Z,60.80
2017-08-08T09:30:59.106Z,61.40
2017-08-08T09:33:27.170Z,59.30
2017-08-08T09:35:55.238Z,60.80
2017-08-08T09:38:23.316Z,59.80
2017-08-08T09:40:51.395Z,58.40
2017-08-08T09:43:19.451Z,60.30
2017-08-08T09:45:48.287Z,58.60
2017-08-08T09:48:16.398Z,58.70
2017-08-08T09:50:44.478Z,58.60
2017-08-08T09:53:13.349Z,59.10
2017-08-08T09:55:41.427Z,58.40
2017-08-08T09:58:09.503Z,59.60
2017-08-08T10:00:37.568Z,59.90
2017-08-08T10:03:05.649Z,61.10
2017-08-08T10:05:34.495Z,58.40
2017-08-08T10:08:02.600Z,58.30
2017-08-08T10:10:30.670Z,60.70
2017-08-08T10:12:58.718Z,60.20
2017-08-08T10:15:26.782Z,60.90
2017-08-08T10:17:54.849Z,60.30
2017-08-08T10:20:22.930Z,58.80
2017-08-08T10:22:51.024Z,62.10
2017-08-08T10:25:19.088Z,63.70
2017-08-08T10:27:47.159Z,61.60
2017-08-08T10:30:15.218Z,61.70
2017-08-08T10:32:43.302Z,63.00
2017-08-08T10:35:11.367Z,63.60
2017-08-08T10:37:39.455Z,66.10
2017-08-08T10:40:07.515Z,63.40
2017-08-08T10:42:35.599Z,63.90
2017-08-08T10:45:03.663Z,66.10
2017-08-08T10:47:31.710Z,60.40
2017-08-08T10:49:59.811Z,63.70
2017-08-08T10:52:27.864Z,64.50
2017-08-08T10:54:55.946Z,62.80
2017-08-08T10:57:24.032Z,63.80
2017-08-08T10:59:52.087Z,63.70
2017-08-08T11:02:20.186Z,66.80
2017-08-08T11:04:49.011Z,67.90
2017-08-08T11:07:17.088Z,67.70
2017-08-08T11:09:45.139Z,69.30
2017-08-08T11:12:13.222Z,71.80
2017-08-08T11:14:41.282Z,73.50
2017-08-08T11:17:09.377Z,73.70
2017-08-08T11:19:37.436Z,75.00
2017-08-08T11:22:05.503Z,74.70
2017-08-08T11:24:33.569Z,74.20
2017-08-08T11:27:01.619Z,74.60
2017-08-08T11:29:30.452Z,76.30
2017-08-08T11:31:58.511Z,76.30
2017-08-08T11:34:26.628Z,79.60
2017-08-08T11:36:54.701Z,80.80
2017-08-08T11:39:22.772Z,83.80
2017-08-08T11:41:50.867Z,83.20
2017-08-08T11:44:19.639Z,83.90
2017-08-08T11:46:47.753Z,85.30
2017-08-08T11:49:15.810Z,84.70
2017-08-08T11:51:43.878Z,85.30
2017-08-08T11:54:11.944Z,83.80
2017-08-08T11:56:40.014Z,84.20
2017-08-08T11:59:11.607Z,85.10
2017-08-08T12:01:39.661Z,85.70
2017-08-08T12:04:07.770Z,86.20
2017-08-08T12:06:36.594Z,84.80
2017-08-08T12:09:04.663Z,84.70
2017-08-08T12:11:32.723Z,85.30
2017-08-08T12:14:00.794Z,83.30
2017-08-08T12:16:28.879Z,85.20
2017-08-08T12:18:56.940Z,85.80
2017-08-08T12:21:25.000Z,84.60
2017-08-08T12:23:53.062Z,84.90
2017-08-08T12:26:21.893Z,86.40
2017-08-08T12:28:49.966Z,86.40
2017-08-08T12:31:18.035Z,85.80
2017-08-08T12:33:46.110Z,84.40
2017-08-08T12:36:14.163Z,83.50
2017-08-08T12:38:42.246Z,83.20
2017-08-08T12:41:10.300Z,82.90
2017-08-08T12:43:38.364Z,82.90
2017-08-08T12:46:06.603Z,82.10
2017-08-08T12:48:34.685Z,82.60
2017-08-08T12:51:02.762Z,80.60
2017-08-08T12:53:30.843Z,81.00
2017-08-08T12:55:58.890Z,82.40
2017-08-08T12:58:26.975Z,83.50
2017-08-08T13:00:55.061Z,83.50
2017-08-08T13:03:23.142Z,83.90
2017-08-08T13:05:51.212Z,83.00
2017-08-08T13:08:19.286Z,83.10
2017-08-08T13:10:47.358Z,83.50
2017-08-08T13:13:15.430Z,84.30
2017-08-08T13:15:44.315Z,85.40
2017-08-08T13:18:12.387Z,85.00
2017-08-08T13:20:40.475Z,85.60
2017-08-08T13:23:09.325Z,87.10
2017-08-08T13:25:37.410Z,86.20
2017-08-08T13:28:05.483Z,88.20
2017-08-08T13:30:33.579Z,89.10
2017-08-08T13:33:02.464Z,87.70
2017-08-08T13:35:30.536Z,87.60
2017-08-08T13:37:59.374Z,87.90
2017-08-08T13:40:27.455Z,87.90
2017-08-08T13:42:55.519Z,87.60
2017-08-08T13:45:23.587Z,88.00
2017-08-08T13:47:52.424Z,86.60
2017-08-08T13:50:20.566Z,86.50
2017-08-08T13:52:48.604Z,85.50
2017-08-08T13:55:16.715Z,83.90
2017-08-08T13:57:44.797Z,84.00
2017-08-08T14:00:12.855Z,84.10
2017-08-08T14:02:40.927Z,84.10
2017-08-08T14:05:09.010Z,84.50
2017-08-08T14:07:37.069Z,84.80
2017-08-08T14:10:05.590Z,83.30
2017-08-08T14:12:33.622Z,83.60
2017-08-08T14:15:01.690Z,83.30
2017-08-08T14:17:29.759Z,82.90
2017-08-08T14:22:32.217Z,82.10
2017-08-08T14:25:00.289Z,82.10
2017-08-08T14:27:28.344Z,84.30
2017-08-08T14:29:56.425Z,84.30
2017-08-08T14:32:24.495Z,86.70
2017-08-08T14:34:52.582Z,89.40
2017-08-08T14:37:21.408Z,91.20
2017-08-08T14:39:49.480Z,91.10
2017-08-08T14:42:17.542Z,90.90
2017-08-08T14:44:45.636Z,91.20
2017-08-08T14:47:13.738Z,91.20
2017-08-08T14:49:42.585Z,92.10
2017-08-08T14:52:10.648Z,92.10
2017-08-08T14:54:38.716Z,92.30
2017-08-08T14:57:07.092Z,91.90
2017-08-08T14:59:35.698Z,90.30
2017-08-08T15:02:03.793Z,90.90
2017-08-08T15:04:31.859Z,90.70
2017-08-08T15:07:00.678Z,88.40
2017-08-08T15:09:28.763Z,88.30
2017-08-08T15:11:56.925Z,88.00
2017-08-08T15:14:25.741Z,85.30
2017-08-08T15:16:53.812Z,85.50
2017-08-08T15:19:21.888Z,85.70
2017-08-08T15:21:49.948Z,83.20
2017-08-08T15:24:18.046Z,83.80
2017-08-08T15:26:46.083Z,84.60
2017-08-08T15:29:14.156Z,84.80
2017-08-08T15:31:42.235Z,83.30
2017-08-08T15:34:10.305Z,81.90
2017-08-08T15:36:38.367Z,82.70
2017-08-08T15:39:06.453Z,82.20
2017-08-08T15:41:34.499Z,80.60
2017-08-08T15:44:02.573Z,80.10
2017-08-08T15:46:30.660Z,78.60
2017-08-08T15:48:59.495Z,80.50
2017-08-08T15:51:27.544Z,79.30
2017-08-08T15:53:56.383Z,77.50
2017-08-08T15:56:24.507Z,77.50
2017-08-08T15:58:52.688Z,76.10
2017-08-08T16:01:20.743Z,75.10
2017-08-08T16:03:49.578Z,76.90
2017-08-08T16:06:17.662Z,76.90
2017-08-08T16:08:45.746Z,77.10
2017-08-08T16:11:15.428Z,76.70
2017-08-08T16:13:43.502Z,76.50
2017-08-08T16:16:11.603Z,76.60
2017-08-08T16:18:39.672Z,77.20
2017-08-08T16:21:07.786Z,77.10
2017-08-08T16:23:37.323Z,77.30
2017-08-08T16:26:05.368Z,76.80
2017-08-08T16:28:33.451Z,77.00
2017-08-08T16:31:01.520Z,76.40
2017-08-08T16:33:29.583Z,76.50
2017-08-08T16:35:57.657Z,76.30
2017-08-08T16:38:25.823Z,77.90
2017-08-08T16:40:54.682Z,78.70
2017-08-08T16:43:22.715Z,78.50
2017-08-08T16:45:50.775Z,78.40
2017-08-08T16:48:19.623Z,77.60
2017-08-08T16:50:47.711Z,77.50
2017-08-08T16:53:16.532Z,75.70
2017-08-08T16:55:44.579Z,75.40
2017-08-08T16:58:13.450Z,75.30
2017-08-08T17:00:42.295Z,76.40
2017-08-08T17:03:10.372Z,76.00
2017-08-08T17:05:38.438Z,76.10
2017-08-08T17:08:06.514Z,77.10
2017-08-08T17:10:34.592Z,77.60
2017-08-08T17:13:02.697Z,77.00
2017-08-08T17:15:30.738Z,77.90
2017-08-08T17:17:58.803Z,78.10
2017-08-08T17:20:26.903Z,78.30
2017-08-08T17:22:54.971Z,78.60
2017-08-08T17:25:23.679Z,78.00
2017-08-08T17:27:52.499Z,79.80
2017-08-08T17:30:20.552Z,79.20
2017-08-08T17:32:49.411Z,77.50
2017-08-08T17:35:17.474Z,77.50
2017-08-08T17:37:45.558Z,76.10
2017-08-08T17:40:13.624Z,76.40
2017-08-08T17:42:41.733Z,76.40
2017-08-08T17:45:09.807Z,77.90
2017-08-08T17:47:37.892Z,78.80
2017-08-08T17:50:05.975Z,80.20
2017-08-08T17:52:34.039Z,83.70
2017-08-08T17:55:02.123Z,87.40
2017-08-08T17:57:30.234Z,88.10
2017-08-08T17:59:58.588Z,89.00
2017-08-08T18:02:26.651Z,89.50
2017-08-08T18:04:59.306Z,89.80
2017-08-08T18:07:27.551Z,90.50
2017-08-08T18:09:55.677Z,91.00
2017-08-08T18:12:23.747Z,91.50
2017-08-08T18:14:51.806Z,91.70
2017-08-08T18:17:19.915Z,91.90
2017-08-08T18:19:48.003Z,92.00
2017-08-08T18:22:16.856Z,91.30
2017-08-08T18:24:44.951Z,91.20
2017-08-08T18:27:13.079Z,91.60
2017-08-08T18:29:41.156Z,91.40
2017-08-08T18:32:09.223Z,91.30
2017-08-08T18:34:37.330Z,91.70
2017-08-08T18:37:05.543Z,91.70
2017-08-08T18:39:34.389Z,91.70
2017-08-08T18:42:02.438Z,91.10
2017-08-08T18:44:30.549Z,90.80
2017-08-08T18:46:59.474Z,91.00
2017-08-08T18:49:27.575Z,91.00
2017-08-08T18:51:55.640Z,91.00
2017-08-08T18:54:23.711Z,91.00
2017-08-08T18:56:51.877Z,91.10
2017-08-08T18:59:20.706Z,91.00
2017-08-08T19:01:48.775Z,90.90
2017-08-08T19:04:17.876Z,91.10
2017-08-08T19:06:45.955Z,91.40
2017-08-08T19:09:14.047Z,91.20
2017-08-08T19:11:42.919Z,91.60
2017-08-08T19:16:45.407Z,89.20
2017-08-08T19:19:13.489Z,88.30
2017-08-08T19:21:41.583Z,87.50
2017-08-08T19:24:09.654Z,86.20
2017-08-08T19:26:37.755Z,86.40
2017-08-08T19:29:05.835Z,84.90
2017-08-08T19:31:33.929Z,85.00
2017-08-08T19:34:02.013Z,83.90
2017-08-08T19:36:30.099Z,84.80
2017-08-08T19:38:58.960Z,84.90
2017-08-08T19:41:27.015Z,85.00
2017-08-08T19:43:55.120Z,84.60
2017-08-08T19:46:23.181Z,84.90
2017-08-08T19:48:51.265Z,84.10
2017-08-08T19:51:19.312Z,83.20
2017-08-08T19:53:47.393Z,82.40
2017-08-08T19:56:15.471Z,82.50
2017-08-08T19:58:43.563Z,82.30
2017-08-08T20:01:11.607Z,82.60
2017-08-08T20:03:39.663Z,82.00
2017-08-08T20:06:07.743Z,82.10
2017-08-08T20:08:35.828Z,81.50
2017-08-08T20:11:03.899Z,80.90
2017-08-08T20:13:31.970Z,81.10
2017-08-08T20:16:00.046Z,81.00
2017-08-08T20:18:28.108Z,80.40
2017-08-08T20:20:56.197Z,80.60
2017-08-08T20:23:24.262Z,80.90
2017-08-08T20:25:52.339Z,81.20
2017-08-08T20:28:20.431Z,81.80
2017-08-08T20:30:49.266Z,81.90
2017-08-08T20:33:17.371Z,81.80
2017-08-08T20:35:45.459Z,81.70
2017-08-08T20:38:13.540Z,81.60
2017-08-08T20:40:42.388Z,82.40
2017-08-08T20:43:10.468Z,82.30
2017-08-08T20:45:38.559Z,82.90
2017-08-08T20:48:07.407Z,84.20
2017-08-08T20:50:36.280Z,83.90
2017-08-08T20:53:04.365Z,83.80
2017-08-08T20:55:33.251Z,83.20
2017-08-08T20:58:01.327Z,83.10
2017-08-08T21:00:29.413Z,83.00
2017-08-08T21:02:57.527Z,82.80
2017-08-08T21:05:25.627Z,83.60
2017-08-08T21:07:53.711Z,84.20
2017-08-08T21:10:21.782Z,84.60
2017-08-08T21:12:49.846Z,84.60
2017-08-08T21:15:17.923Z,85.20
2017-08-08T21:17:46.811Z,85.40
2017-08-08T21:20:14.892Z,85.40
2017-08-08T21:22:42.944Z,84.50
2017-08-08T21:25:11.028Z,85.40
2017-08-08T21:27:39.099Z,85.20
2017-08-08T21:30:09.460Z,84.70
2017-08-08T21:32:37.532Z,84.70
2017-08-08T21:35:05.618Z,84.60
2017-08-08T21:37:33.777Z,84.90
2017-08-08T21:40:02.608Z,85.80
2017-08-08T21:42:30.678Z,85.70
2017-08-08T21:44:58.754Z,85.20
2017-08-08T21:47:26.852Z,84.50
2017-08-08T21:49:55.688Z,83.60
2017-08-08T21:52:24.559Z,83.60
2017-08-08T21:54:52.595Z,83.60
2017-08-08T21:57:20.649Z,83.50
2017-08-08T21:59:48.759Z,83.50
2017-08-08T22:02:16.829Z,82.90
2017-08-08T22:04:44.914Z,82.50
2017-08-08T22:07:13.023Z,82.80
2017-08-08T22:09:41.071Z,82.60
2017-08-08T22:12:09.201Z,82.60
2017-08-08T22:14:37.251Z,82.30
2017-08-08T22:17:05.474Z,81.90
2017-08-08T22:19:33.555Z,81.40
2017-08-08T22:22:02.384Z,81.70
2017-08-08T22:24:30.467Z,81.70
2017-08-08T22:26:58.547Z,81.60
2017-08-08T22:29:26.606Z,81.40
2017-08-08T22:31:54.680Z,81.10
2017-08-08T22:34:22.759Z,81.40
2017-08-08T22:36:50.823Z,81.00
2017-08-08T22:39:18.916Z,82.40
2017-08-08T22:41:46.992Z,83.00
2017-08-08T22:44:15.090Z,83.30
2017-08-08T22:46:43.931Z,84.20
2017-08-08T22:49:12.011Z,84.10
2017-08-08T22:51:40.107Z,84.40
2017-08-08T22:54:08.192Z,84.00
2017-08-08T22:56:37.014Z,83.60
2017-08-08T22:59:05.102Z,83.60
2017-08-08T23:01:33.192Z,83.00
2017-08-08T23:04:01.266Z,82.90
2017-08-08T23:06:29.346Z,82.90
2017-08-08T23:08:57.417Z,83.10
2017-08-08T23:11:25.497Z,83.10
2017-08-08T23:13:53.547Z,83.20
2017-08-08T23:16:21.632Z,82.90
2017-08-08T23:18:49.709Z,83.70
2017-08-08T23:21:17.781Z,83.60
2017-08-08T23:23:46.618Z,84.50
2017-08-08T23:26:14.692Z,84.30
2017-08-08T23:28:42.770Z,84.00
2017-08-08T23:31:10.851Z,84.00
2017-08-08T23:33:38.938Z,83.80
2017-08-08T23:36:06.999Z,83.50
2017-08-08T23:38:35.091Z,83.20
2017-08-08T23:41:03.167Z,83.20
2017-08-08T23:43:31.236Z,84.00
2017-08-08T23:45:59.307Z,83.10
2017-08-08T23:48:27.384Z,83.20
2017-08-08T23:50:55.447Z,83.00
2017-08-08T23:53:23.527Z,82.50
2017-08-08T23:55:51.601Z,82.10
2017-08-08T23:58:19.680Z,81.40
